sensor_id;sensor_type;location;lat;lon;timestamp;P1;durP1;ratioP1;P2;durP2;ratioP2
69203;SDS011;56317;27.658;85.326;2024-03-06T00:00:04;89.28;;;38.70;;
69203;SDS011;56317;27.658;85.326;2024-03-06T00:02:34;84.85;;;38.00;;
69203;SDS011;56317;27.658;85.326;2024-03-06T00:05:01;84.15;;;39.00;;
69203;SDS011;56317;27.658;85.326;2024-03-06T00:07:30;90.35;;;40.15;;
69203;SDS011;56317;27.658;85.326;2024-03-06T00:09:57;99.05;;;41.75;;
69203;SDS011;56317;27.658;85.326;2024-03-06T00:12:24;93.88;;;42.03;;
69203;SDS011;56317;27.658;85.326;2024-03-06T00:14:51;121.38;;;45.45;;
69203;SDS011;56317;27.658;85.326;2024-03-06T00:17:18;102.72;;;43.85;;
69203;SDS011;56317;27.658;85.326;2024-03-06T00:19:45;116.35;;;47.13;;
69203;SDS011;56317;27.658;85.326;2024-03-06T00:22:12;113.38;;;45.40;;
69203;SDS011;56317;27.658;85.326;2024-03-06T00:24:40;104.05;;;43.53;;
69203;SDS011;56317;27.658;85.326;2024-03-06T00:27:07;107.85;;;44.03;;
69203;SDS011;56317;27.658;85.326;2024-03-06T00:29:35;100.53;;;42.65;;
69203;SDS011;56317;27.658;85.326;2024-03-06T00:32:03;94.47;;;40.55;;
69203;SDS011;56317;27.658;85.326;2024-03-06T00:34:31;97.00;;;43.17;;
69203;SDS011;56317;27.658;85.326;2024-03-06T00:36:58;88.85;;;40.25;;
69203;SDS011;56317;27.658;85.326;2024-03-06T00:39:25;85.43;;;38.05;;
69203;SDS011;56317;27.658;85.326;2024-03-06T00:41:52;100.88;;;40.03;;
69203;SDS011;56317;27.658;85.326;2024-03-06T00:44:19;90.97;;;39.13;;
69203;SDS011;56317;27.658;85.326;2024-03-06T00:46:46;109.25;;;40.58;;
69203;SDS011;56317;27.658;85.326;2024-03-06T00:49:14;104.57;;;39.78;;
69203;SDS011;56317;27.658;85.326;2024-03-06T00:51:41;90.60;;;38.20;;
69203;SDS011;56317;27.658;85.326;2024-03-06T00:54:08;95.95;;;39.80;;
69203;SDS011;56317;27.658;85.326;2024-03-06T00:56:38;83.63;;;36.88;;
69203;SDS011;56317;27.658;85.326;2024-03-06T00:59:05;117.43;;;43.83;;
69203;SDS011;56317;27.658;85.326;2024-03-06T01:01:33;104.47;;;40.47;;
69203;SDS011;56317;27.658;85.326;2024-03-06T01:04:00;93.75;;;41.35;;
69203;SDS011;56317;27.658;85.326;2024-03-06T01:06:27;111.57;;;41.58;;
69203;SDS011;56317;27.658;85.326;2024-03-06T01:08:55;101.65;;;41.85;;
69203;SDS011;56317;27.658;85.326;2024-03-06T01:11:24;96.88;;;42.88;;
69203;SDS011;56317;27.658;85.326;2024-03-06T01:13:52;89.10;;;45.20;;
69203;SDS011;56317;27.658;85.326;2024-03-06T01:16:19;106.38;;;44.47;;
69203;SDS011;56317;27.658;85.326;2024-03-06T01:18:46;119.72;;;52.08;;
69203;SDS011;56317;27.658;85.326;2024-03-06T01:21:14;121.22;;;59.88;;
69203;SDS011;56317;27.658;85.326;2024-03-06T01:23:41;114.57;;;55.67;;
69203;SDS011;56317;27.658;85.326;2024-03-06T01:26:08;111.50;;;54.70;;
69203;SDS011;56317;27.658;85.326;2024-03-06T01:28:37;112.90;;;56.83;;
69203;SDS011;56317;27.658;85.326;2024-03-06T01:31:07;106.88;;;54.95;;
69203;SDS011;56317;27.658;85.326;2024-03-06T01:33:35;108.78;;;54.08;;
69203;SDS011;56317;27.658;85.326;2024-03-06T01:36:02;114.95;;;53.53;;
69203;SDS011;56317;27.658;85.326;2024-03-06T01:38:30;104.93;;;49.58;;
69203;SDS011;56317;27.658;85.326;2024-03-06T01:40:57;101.45;;;49.45;;
69203;SDS011;56317;27.658;85.326;2024-03-06T01:43:25;98.30;;;43.70;;
69203;SDS011;56317;27.658;85.326;2024-03-06T01:45:53;90.40;;;44.03;;
69203;SDS011;56317;27.658;85.326;2024-03-06T01:48:27;99.15;;;51.47;;
69203;SDS011;56317;27.658;85.326;2024-03-06T01:50:57;96.47;;;49.95;;
69203;SDS011;56317;27.658;85.326;2024-03-06T01:53:26;96.05;;;46.38;;
69203;SDS011;56317;27.658;85.326;2024-03-06T01:56:00;92.60;;;44.28;;
69203;SDS011;56317;27.658;85.326;2024-03-06T01:58:29;85.20;;;42.75;;
69203;SDS011;56317;27.658;85.326;2024-03-06T02:00:58;91.38;;;43.85;;
69203;SDS011;56317;27.658;85.326;2024-03-06T02:03:25;101.00;;;44.05;;
69203;SDS011;56317;27.658;85.326;2024-03-06T02:05:55;101.93;;;46.35;;
69203;SDS011;56317;27.658;85.326;2024-03-06T02:08:24;104.07;;;44.67;;
69203;SDS011;56317;27.658;85.326;2024-03-06T02:10:51;99.70;;;47.35;;
69203;SDS011;56317;27.658;85.326;2024-03-06T02:13:18;95.88;;;46.83;;
69203;SDS011;56317;27.658;85.326;2024-03-06T02:15:47;109.35;;;50.25;;
69203;SDS011;56317;27.658;85.326;2024-03-06T02:18:16;102.40;;;46.28;;
69203;SDS011;56317;27.658;85.326;2024-03-06T02:20:43;100.60;;;50.90;;
69203;SDS011;56317;27.658;85.326;2024-03-06T02:23:12;104.22;;;49.47;;
69203;SDS011;56317;27.658;85.326;2024-03-06T02:25:44;111.13;;;52.08;;
69203;SDS011;56317;27.658;85.326;2024-03-06T02:28:15;107.72;;;51.58;;
69203;SDS011;56317;27.658;85.326;2024-03-06T02:30:43;114.60;;;54.63;;
69203;SDS011;56317;27.658;85.326;2024-03-06T02:33:10;112.95;;;54.20;;
69203;SDS011;56317;27.658;85.326;2024-03-06T02:35:40;110.55;;;53.38;;
69203;SDS011;56317;27.658;85.326;2024-03-06T02:38:10;122.23;;;52.90;;
69203;SDS011;56317;27.658;85.326;2024-03-06T02:40:37;109.80;;;51.90;;
69203;SDS011;56317;27.658;85.326;2024-03-06T02:43:04;107.97;;;48.40;;
69203;SDS011;56317;27.658;85.326;2024-03-06T02:45:35;102.60;;;46.50;;
69203;SDS011;56317;27.658;85.326;2024-03-06T02:48:02;95.40;;;47.92;;
69203;SDS011;56317;27.658;85.326;2024-03-06T02:50:30;93.40;;;45.53;;
69203;SDS011;56317;27.658;85.326;2024-03-06T02:52:59;95.75;;;45.55;;
69203;SDS011;56317;27.658;85.326;2024-03-06T02:55:26;96.28;;;42.65;;
69203;SDS011;56317;27.658;85.326;2024-03-06T02:57:53;90.15;;;41.90;;
69203;SDS011;56317;27.658;85.326;2024-03-06T03:00:22;88.97;;;44.35;;
69203;SDS011;56317;27.658;85.326;2024-03-06T03:02:49;79.78;;;42.30;;
69203;SDS011;56317;27.658;85.326;2024-03-06T03:05:16;82.78;;;41.50;;
69203;SDS011;56317;27.658;85.326;2024-03-06T03:07:43;84.07;;;40.17;;
69203;SDS011;56317;27.658;85.326;2024-03-06T03:10:13;79.10;;;39.58;;
69203;SDS011;56317;27.658;85.326;2024-03-06T03:12:40;85.10;;;41.15;;
69203;SDS011;56317;27.658;85.326;2024-03-06T03:15:08;83.70;;;41.25;;
69203;SDS011;56317;27.658;85.326;2024-03-06T03:17:35;77.50;;;38.72;;
69203;SDS011;56317;27.658;85.326;2024-03-06T03:20:03;86.18;;;40.83;;
69203;SDS011;56317;27.658;85.326;2024-03-06T03:22:36;78.07;;;38.65;;
69203;SDS011;56317;27.658;85.326;2024-03-06T03:25:07;75.15;;;37.83;;
69203;SDS011;56317;27.658;85.326;2024-03-06T03:27:55;80.03;;;37.05;;
69203;SDS011;56317;27.658;85.326;2024-03-06T03:30:22;73.57;;;35.78;;
69203;SDS011;56317;27.658;85.326;2024-03-06T03:32:49;73.10;;;36.90;;
69203;SDS011;56317;27.658;85.326;2024-03-06T03:35:16;74.15;;;36.80;;
69203;SDS011;56317;27.658;85.326;2024-03-06T03:37:46;80.75;;;37.30;;
69203;SDS011;56317;27.658;85.326;2024-03-06T03:40:13;80.43;;;39.13;;
69203;SDS011;56317;27.658;85.326;2024-03-06T03:42:41;85.82;;;40.50;;
69203;SDS011;56317;27.658;85.326;2024-03-06T03:45:12;81.82;;;37.25;;
69203;SDS011;56317;27.658;85.326;2024-03-06T03:47:40;71.05;;;36.30;;
69203;SDS011;56317;27.658;85.326;2024-03-06T03:50:08;65.55;;;31.30;;
69203;SDS011;56317;27.658;85.326;2024-03-06T03:52:36;57.38;;;32.13;;
69203;SDS011;56317;27.658;85.326;2024-03-06T03:55:07;54.33;;;28.13;;
69203;SDS011;56317;27.658;85.326;2024-03-06T03:57:34;46.35;;;21.88;;
69203;SDS011;56317;27.658;85.326;2024-03-06T04:00:02;47.60;;;24.65;;
69203;SDS011;56317;27.658;85.326;2024-03-06T04:02:36;51.38;;;22.80;;
69203;SDS011;56317;27.658;85.326;2024-03-06T04:05:04;39.13;;;19.67;;
69203;SDS011;56317;27.658;85.326;2024-03-06T04:07:32;43.60;;;22.13;;
69203;SDS011;56317;27.658;85.326;2024-03-06T04:09:59;41.85;;;21.30;;
69203;SDS011;56317;27.658;85.326;2024-03-06T04:12:27;44.92;;;19.40;;
69203;SDS011;56317;27.658;85.326;2024-03-06T04:14:54;35.78;;;20.65;;
69203;SDS011;56317;27.658;85.326;2024-03-06T04:17:21;37.65;;;22.05;;
69203;SDS011;56317;27.658;85.326;2024-03-06T04:19:50;64.75;;;27.55;;
69203;SDS011;56317;27.658;85.326;2024-03-06T04:22:19;61.42;;;30.15;;
69203;SDS011;56317;27.658;85.326;2024-03-06T04:24:46;51.15;;;28.58;;
69203;SDS011;56317;27.658;85.326;2024-03-06T04:27:13;58.20;;;28.98;;
69203;SDS011;56317;27.658;85.326;2024-03-06T04:29:42;62.83;;;29.30;;
69203;SDS011;56317;27.658;85.326;2024-03-06T04:32:10;54.35;;;28.73;;
69203;SDS011;56317;27.658;85.326;2024-03-06T04:34:37;52.75;;;28.42;;
69203;SDS011;56317;27.658;85.326;2024-03-06T04:37:04;52.47;;;29.27;;
69203;SDS011;56317;27.658;85.326;2024-03-06T04:39:32;66.78;;;32.88;;
69203;SDS011;56317;27.658;85.326;2024-03-06T04:41:59;69.43;;;33.08;;
69203;SDS011;56317;27.658;85.326;2024-03-06T04:44:27;63.97;;;32.17;;
69203;SDS011;56317;27.658;85.326;2024-03-06T04:46:54;63.90;;;32.45;;
69203;SDS011;56317;27.658;85.326;2024-03-06T04:49:23;57.47;;;30.23;;
69203;SDS011;56317;27.658;85.326;2024-03-06T04:51:51;71.43;;;31.02;;
69203;SDS011;56317;27.658;85.326;2024-03-06T04:54:18;58.67;;;30.38;;
69203;SDS011;56317;27.658;85.326;2024-03-06T04:56:47;50.67;;;28.10;;
69203;SDS011;56317;27.658;85.326;2024-03-06T04:59:14;58.22;;;29.52;;
69203;SDS011;56317;27.658;85.326;2024-03-06T05:01:44;65.55;;;29.33;;
69203;SDS011;56317;27.658;85.326;2024-03-06T05:04:13;57.42;;;29.30;;
69203;SDS011;56317;27.658;85.326;2024-03-06T05:06:40;52.97;;;26.75;;
69203;SDS011;56317;27.658;85.326;2024-03-06T05:09:08;60.38;;;28.55;;
69203;SDS011;56317;27.658;85.326;2024-03-06T05:11:39;52.25;;;28.33;;
69203;SDS011;56317;27.658;85.326;2024-03-06T05:14:08;46.17;;;26.30;;
69203;SDS011;56317;27.658;85.326;2024-03-06T05:16:37;48.50;;;25.38;;
69203;SDS011;56317;27.658;85.326;2024-03-06T05:19:05;46.90;;;25.55;;
69203;SDS011;56317;27.658;85.326;2024-03-06T05:21:32;43.38;;;25.20;;
69203;SDS011;56317;27.658;85.326;2024-03-06T05:24:01;40.38;;;23.98;;
69203;SDS011;56317;27.658;85.326;2024-03-06T05:26:28;49.72;;;21.85;;
69203;SDS011;56317;27.658;85.326;2024-03-06T05:28:55;39.38;;;21.60;;
69203;SDS011;56317;27.658;85.326;2024-03-06T05:31:22;31.95;;;19.40;;
69203;SDS011;56317;27.658;85.326;2024-03-06T05:33:50;38.38;;;22.10;;
69203;SDS011;56317;27.658;85.326;2024-03-06T05:36:18;38.72;;;21.75;;
69203;SDS011;56317;27.658;85.326;2024-03-06T05:38:45;32.25;;;17.52;;
69203;SDS011;56317;27.658;85.326;2024-03-06T05:41:15;36.40;;;18.00;;
69203;SDS011;56317;27.658;85.326;2024-03-06T05:43:43;29.45;;;14.48;;
69203;SDS011;56317;27.658;85.326;2024-03-06T05:46:10;24.08;;;11.73;;
69203;SDS011;56317;27.658;85.326;2024-03-06T05:48:38;23.63;;;12.10;;
69203;SDS011;56317;27.658;85.326;2024-03-06T05:51:05;23.67;;;14.75;;
69203;SDS011;56317;27.658;85.326;2024-03-06T05:53:36;33.00;;;16.45;;
69203;SDS011;56317;27.658;85.326;2024-03-06T05:56:06;30.17;;;15.75;;
69203;SDS011;56317;27.658;85.326;2024-03-06T06:11:27;21.40;;;8.63;;
69203;SDS011;56317;27.658;85.326;2024-03-06T06:13:55;17.70;;;7.50;;
69203;SDS011;56317;27.658;85.326;2024-03-06T06:27:09;14.40;;;5.68;;
69203;SDS011;56317;27.658;85.326;2024-03-06T06:29:38;10.32;;;4.15;;
69203;SDS011;56317;27.658;85.326;2024-03-06T06:32:05;11.55;;;4.65;;
69203;SDS011;56317;27.658;85.326;2024-03-06T06:34:32;16.58;;;4.78;;
69203;SDS011;56317;27.658;85.326;2024-03-06T06:37:00;9.20;;;3.83;;
69203;SDS011;56317;27.658;85.326;2024-03-06T06:39:27;7.90;;;3.90;;
69203;SDS011;56317;27.658;85.326;2024-03-06T06:41:55;12.55;;;3.90;;
69203;SDS011;56317;27.658;85.326;2024-03-06T06:44:22;9.23;;;4.18;;
69203;SDS011;56317;27.658;85.326;2024-03-06T06:46:49;16.48;;;4.80;;
69203;SDS011;56317;27.658;85.326;2024-03-06T06:49:23;12.90;;;5.20;;
69203;SDS011;56317;27.658;85.326;2024-03-06T06:51:55;12.07;;;5.03;;
69203;SDS011;56317;27.658;85.326;2024-03-06T06:54:26;11.02;;;4.88;;
69203;SDS011;56317;27.658;85.326;2024-03-06T06:56:53;8.27;;;4.07;;
69203;SDS011;56317;27.658;85.326;2024-03-06T06:59:20;8.73;;;3.92;;
69203;SDS011;56317;27.658;85.326;2024-03-06T07:01:48;16.38;;;4.50;;
69203;SDS011;56317;27.658;85.326;2024-03-06T07:04:16;13.30;;;3.90;;
69203;SDS011;56317;27.658;85.326;2024-03-06T07:06:46;12.38;;;4.00;;
69203;SDS011;56317;27.658;85.326;2024-03-06T07:09:13;10.77;;;4.40;;
69203;SDS011;56317;27.658;85.326;2024-03-06T07:11:44;15.45;;;4.03;;
69203;SDS011;56317;27.658;85.326;2024-03-06T07:14:14;8.85;;;3.90;;
69203;SDS011;56317;27.658;85.326;2024-03-06T07:16:42;10.57;;;4.10;;
69203;SDS011;56317;27.658;85.326;2024-03-06T07:19:10;9.40;;;3.70;;
69203;SDS011;56317;27.658;85.326;2024-03-06T07:21:37;8.27;;;3.88;;
69203;SDS011;56317;27.658;85.326;2024-03-06T07:24:05;9.32;;;4.70;;
69203;SDS011;56317;27.658;85.326;2024-03-06T07:26:32;14.57;;;5.97;;
69203;SDS011;56317;27.658;85.326;2024-03-06T07:29:00;16.80;;;5.75;;
69203;SDS011;56317;27.658;85.326;2024-03-06T07:31:28;16.02;;;4.68;;
69203;SDS011;56317;27.658;85.326;2024-03-06T07:33:56;14.13;;;5.50;;
69203;SDS011;56317;27.658;85.326;2024-03-06T07:36:23;12.20;;;5.18;;
69203;SDS011;56317;27.658;85.326;2024-03-06T07:38:50;14.15;;;4.90;;
69203;SDS011;56317;27.658;85.326;2024-03-06T07:41:18;12.43;;;5.32;;
69203;SDS011;56317;27.658;85.326;2024-03-06T07:43:46;13.45;;;5.30;;
69203;SDS011;56317;27.658;85.326;2024-03-06T07:46:14;11.75;;;4.82;;
69203;SDS011;56317;27.658;85.326;2024-03-06T07:48:44;9.85;;;4.70;;
69203;SDS011;56317;27.658;85.326;2024-03-06T07:51:11;12.98;;;4.07;;
69203;SDS011;56317;27.658;85.326;2024-03-06T07:53:39;13.57;;;5.28;;
69203;SDS011;56317;27.658;85.326;2024-03-06T07:56:09;11.25;;;4.90;;
69203;SDS011;56317;27.658;85.326;2024-03-06T07:58:39;10.52;;;4.80;;
69203;SDS011;56317;27.658;85.326;2024-03-06T08:01:10;16.70;;;4.03;;
69203;SDS011;56317;27.658;85.326;2024-03-06T08:03:39;7.55;;;2.60;;
69203;SDS011;56317;27.658;85.326;2024-03-06T08:06:09;8.95;;;3.25;;
69203;SDS011;56317;27.658;85.326;2024-03-06T08:08:39;6.90;;;2.67;;
69203;SDS011;56317;27.658;85.326;2024-03-06T08:11:07;9.10;;;3.25;;
69203;SDS011;56317;27.658;85.326;2024-03-06T08:13:37;12.10;;;4.07;;
69203;SDS011;56317;27.658;85.326;2024-03-06T08:16:05;13.43;;;3.20;;
69203;SDS011;56317;27.658;85.326;2024-03-06T08:18:33;6.28;;;2.90;;
69203;SDS011;56317;27.658;85.326;2024-03-06T08:21:01;8.95;;;3.60;;
69203;SDS011;56317;27.658;85.326;2024-03-06T08:23:32;9.13;;;4.38;;
69203;SDS011;56317;27.658;85.326;2024-03-06T08:25:59;7.22;;;3.80;;
69203;SDS011;56317;27.658;85.326;2024-03-06T08:28:26;10.15;;;3.50;;
69203;SDS011;56317;27.658;85.326;2024-03-06T08:30:54;5.38;;;2.40;;
69203;SDS011;56317;27.658;85.326;2024-03-06T08:33:21;7.15;;;3.50;;
69203;SDS011;56317;27.658;85.326;2024-03-06T08:35:48;7.70;;;2.42;;
69203;SDS011;56317;27.658;85.326;2024-03-06T08:38:15;5.28;;;2.40;;
69203;SDS011;56317;27.658;85.326;2024-03-06T08:40:43;6.28;;;2.92;;
69203;SDS011;56317;27.658;85.326;2024-03-06T08:43:14;11.57;;;3.20;;
69203;SDS011;56317;27.658;85.326;2024-03-06T08:45:42;8.18;;;2.85;;
69203;SDS011;56317;27.658;85.326;2024-03-06T08:48:09;5.53;;;2.58;;
69203;SDS011;56317;27.658;85.326;2024-03-06T08:53:06;9.90;;;3.90;;
69203;SDS011;56317;27.658;85.326;2024-03-06T08:55:34;11.45;;;2.92;;
69203;SDS011;56317;27.658;85.326;2024-03-06T08:58:02;14.73;;;2.67;;
69203;SDS011;56317;27.658;85.326;2024-03-06T09:00:30;6.50;;;2.20;;
69203;SDS011;56317;27.658;85.326;2024-03-06T09:02:58;5.75;;;2.10;;
69203;SDS011;56317;27.658;85.326;2024-03-06T09:05:25;5.05;;;1.90;;
69203;SDS011;56317;27.658;85.326;2024-03-06T09:07:53;4.53;;;2.10;;
69203;SDS011;56317;27.658;85.326;2024-03-06T09:10:25;7.75;;;2.22;;
69203;SDS011;56317;27.658;85.326;2024-03-06T09:12:52;4.75;;;2.10;;
69203;SDS011;56317;27.658;85.326;2024-03-06T09:15:19;5.25;;;1.88;;
69203;SDS011;56317;27.658;85.326;2024-03-06T09:17:46;4.05;;;1.98;;
69203;SDS011;56317;27.658;85.326;2024-03-06T09:20:14;6.00;;;1.88;;
69203;SDS011;56317;27.658;85.326;2024-03-06T09:22:42;7.32;;;2.08;;
69203;SDS011;56317;27.658;85.326;2024-03-06T09:25:09;5.55;;;1.75;;
69203;SDS011;56317;27.658;85.326;2024-03-06T09:27:40;4.38;;;1.67;;
69203;SDS011;56317;27.658;85.326;2024-03-06T09:30:08;6.53;;;1.83;;
69203;SDS011;56317;27.658;85.326;2024-03-06T09:32:37;8.18;;;2.10;;
69203;SDS011;56317;27.658;85.326;2024-03-06T09:35:04;5.45;;;1.50;;
69203;SDS011;56317;27.658;85.326;2024-03-06T09:37:32;8.27;;;2.00;;
69203;SDS011;56317;27.658;85.326;2024-03-06T09:40:02;6.40;;;2.00;;
69203;SDS011;56317;27.658;85.326;2024-03-06T09:42:30;11.20;;;2.38;;
69203;SDS011;56317;27.658;85.326;2024-03-06T09:44:57;7.97;;;2.00;;
69203;SDS011;56317;27.658;85.326;2024-03-06T09:47:24;8.57;;;2.05;;
69203;SDS011;56317;27.658;85.326;2024-03-06T09:49:56;13.48;;;2.58;;
69203;SDS011;56317;27.658;85.326;2024-03-06T09:52:23;10.98;;;2.00;;
69203;SDS011;56317;27.658;85.326;2024-03-06T09:54:53;5.25;;;2.22;;
69203;SDS011;56317;27.658;85.326;2024-03-06T09:57:21;6.63;;;2.10;;
69203;SDS011;56317;27.658;85.326;2024-03-06T09:59:48;7.22;;;2.83;;
69203;SDS011;56317;27.658;85.326;2024-03-06T10:05:21;9.45;;;3.53;;
69203;SDS011;56317;27.658;85.326;2024-03-06T10:10:24;11.43;;;3.45;;
69203;SDS011;56317;27.658;85.326;2024-03-06T10:12:52;15.32;;;4.50;;
69203;SDS011;56317;27.658;85.326;2024-03-06T10:15:21;9.70;;;3.10;;
69203;SDS011;56317;27.658;85.326;2024-03-06T10:17:48;10.55;;;3.20;;
69203;SDS011;56317;27.658;85.326;2024-03-06T10:20:24;9.68;;;3.33;;
69203;SDS011;56317;27.658;85.326;2024-03-06T10:22:54;7.57;;;3.28;;
69203;SDS011;56317;27.658;85.326;2024-03-06T10:25:24;12.73;;;3.83;;
69203;SDS011;56317;27.658;85.326;2024-03-06T10:28:05;7.75;;;3.10;;
69203;SDS011;56317;27.658;85.326;2024-03-06T10:30:40;9.93;;;4.05;;
69203;SDS011;56317;27.658;85.326;2024-03-06T10:33:08;10.10;;;3.97;;
69203;SDS011;56317;27.658;85.326;2024-03-06T10:35:36;10.27;;;4.18;;
69203;SDS011;56317;27.658;85.326;2024-03-06T10:38:04;13.02;;;3.13;;
69203;SDS011;56317;27.658;85.326;2024-03-06T10:40:39;9.07;;;3.65;;
69203;SDS011;56317;27.658;85.326;2024-03-06T10:43:08;8.20;;;3.15;;
69203;SDS011;56317;27.658;85.326;2024-03-06T10:48:09;8.48;;;3.53;;
69203;SDS011;56317;27.658;85.326;2024-03-06T10:50:39;9.30;;;3.80;;
69203;SDS011;56317;27.658;85.326;2024-03-06T10:53:11;10.10;;;3.90;;
69203;SDS011;56317;27.658;85.326;2024-03-06T10:55:40;14.10;;;3.75;;
69203;SDS011;56317;27.658;85.326;2024-03-06T10:58:13;15.70;;;4.47;;
69203;SDS011;56317;27.658;85.326;2024-03-06T11:00:43;16.00;;;3.65;;
69203;SDS011;56317;27.658;85.326;2024-03-06T11:03:15;12.38;;;3.47;;
69203;SDS011;56317;27.658;85.326;2024-03-06T11:05:43;10.82;;;3.90;;
69203;SDS011;56317;27.658;85.326;2024-03-06T11:08:16;21.95;;;4.13;;
69203;SDS011;56317;27.658;85.326;2024-03-06T11:10:43;20.02;;;4.93;;
69203;SDS011;56317;27.658;85.326;2024-03-06T11:15:56;17.25;;;4.20;;
69203;SDS011;56317;27.658;85.326;2024-03-06T11:23:30;13.82;;;4.90;;
69203;SDS011;56317;27.658;85.326;2024-03-06T11:26:07;13.38;;;5.03;;
69203;SDS011;56317;27.658;85.326;2024-03-06T11:28:36;20.77;;;5.43;;
69203;SDS011;56317;27.658;85.326;2024-03-06T11:31:11;13.05;;;5.10;;
69203;SDS011;56317;27.658;85.326;2024-03-06T11:33:47;12.85;;;6.05;;
69203;SDS011;56317;27.658;85.326;2024-03-06T11:36:28;15.95;;;6.75;;
69203;SDS011;56317;27.658;85.326;2024-03-06T11:38:56;12.70;;;5.40;;
69203;SDS011;56317;27.658;85.326;2024-03-06T11:41:29;16.27;;;6.22;;
69203;SDS011;56317;27.658;85.326;2024-03-06T11:44:14;18.90;;;5.95;;
69203;SDS011;56317;27.658;85.326;2024-03-06T11:49:26;18.25;;;8.38;;
69203;SDS011;56317;27.658;85.326;2024-03-06T11:51:55;42.67;;;20.60;;
69203;SDS011;56317;27.658;85.326;2024-03-06T11:54:37;51.83;;;24.52;;
69203;SDS011;56317;27.658;85.326;2024-03-06T11:57:04;55.65;;;29.00;;
69203;SDS011;56317;27.658;85.326;2024-03-06T11:59:33;51.17;;;25.20;;
69203;SDS011;56317;27.658;85.326;2024-03-06T12:02:02;55.88;;;29.58;;
69203;SDS011;56317;27.658;85.326;2024-03-06T12:04:31;52.97;;;25.90;;
69203;SDS011;56317;27.658;85.326;2024-03-06T12:07:05;60.83;;;30.85;;
69203;SDS011;56317;27.658;85.326;2024-03-06T12:09:32;61.85;;;30.75;;
69203;SDS011;56317;27.658;85.326;2024-03-06T12:12:00;68.95;;;30.35;;
69203;SDS011;56317;27.658;85.326;2024-03-06T12:14:28;61.88;;;32.03;;
69203;SDS011;56317;27.658;85.326;2024-03-06T12:19:27;61.22;;;29.75;;
69203;SDS011;56317;27.658;85.326;2024-03-06T12:22:00;71.60;;;36.20;;
69203;SDS011;56317;27.658;85.326;2024-03-06T12:24:31;82.53;;;33.50;;
69203;SDS011;56317;27.658;85.326;2024-03-06T12:26:59;71.53;;;35.08;;
69203;SDS011;56317;27.658;85.326;2024-03-06T12:29:31;68.97;;;34.00;;
69203;SDS011;56317;27.658;85.326;2024-03-06T12:31:59;59.90;;;28.15;;
69203;SDS011;56317;27.658;85.326;2024-03-06T12:34:27;56.63;;;29.38;;
69203;SDS011;56317;27.658;85.326;2024-03-06T12:36:55;65.13;;;30.83;;
69203;SDS011;56317;27.658;85.326;2024-03-06T12:39:23;71.47;;;36.40;;
69203;SDS011;56317;27.658;85.326;2024-03-06T12:41:51;67.47;;;33.78;;
69203;SDS011;56317;27.658;85.326;2024-03-06T12:44:21;74.45;;;36.22;;
69203;SDS011;56317;27.658;85.326;2024-03-06T12:46:48;65.18;;;35.45;;
69203;SDS011;56317;27.658;85.326;2024-03-06T12:49:15;80.13;;;39.80;;
69203;SDS011;56317;27.658;85.326;2024-03-06T12:51:44;80.65;;;39.85;;
69203;SDS011;56317;27.658;85.326;2024-03-06T12:54:11;88.38;;;42.08;;
69203;SDS011;56317;27.658;85.326;2024-03-06T12:56:38;83.82;;;39.13;;
69203;SDS011;56317;27.658;85.326;2024-03-06T12:59:07;88.90;;;39.90;;
69203;SDS011;56317;27.658;85.326;2024-03-06T13:01:35;84.00;;;38.53;;
69203;SDS011;56317;27.658;85.326;2024-03-06T13:04:02;89.53;;;43.00;;
69203;SDS011;56317;27.658;85.326;2024-03-06T13:06:31;93.57;;;44.42;;
69203;SDS011;56317;27.658;85.326;2024-03-06T13:08:59;84.47;;;41.90;;
69203;SDS011;56317;27.658;85.326;2024-03-06T13:11:26;86.72;;;45.20;;
69203;SDS011;56317;27.658;85.326;2024-03-06T13:13:53;79.22;;;40.42;;
69203;SDS011;56317;27.658;85.326;2024-03-06T13:16:20;84.82;;;42.05;;
69203;SDS011;56317;27.658;85.326;2024-03-06T13:18:47;87.30;;;40.13;;
69203;SDS011;56317;27.658;85.326;2024-03-06T13:21:18;76.18;;;37.60;;
69203;SDS011;56317;27.658;85.326;2024-03-06T13:23:45;87.45;;;40.92;;
69203;SDS011;56317;27.658;85.326;2024-03-06T13:26:12;95.72;;;42.90;;
69203;SDS011;56317;27.658;85.326;2024-03-06T13:28:39;77.18;;;41.65;;
69203;SDS011;56317;27.658;85.326;2024-03-06T13:31:07;85.63;;;45.17;;
69203;SDS011;56317;27.658;85.326;2024-03-06T13:33:34;96.57;;;44.50;;
69203;SDS011;56317;27.658;85.326;2024-03-06T13:36:03;93.88;;;43.78;;
69203;SDS011;56317;27.658;85.326;2024-03-06T13:38:30;94.65;;;45.05;;
69203;SDS011;56317;27.658;85.326;2024-03-06T13:41:02;81.10;;;43.47;;
69203;SDS011;56317;27.658;85.326;2024-03-06T13:43:30;93.60;;;45.70;;
69203;SDS011;56317;27.658;85.326;2024-03-06T13:45:58;99.50;;;44.70;;
69203;SDS011;56317;27.658;85.326;2024-03-06T13:48:25;89.40;;;44.38;;
69203;SDS011;56317;27.658;85.326;2024-03-06T13:50:52;89.80;;;42.05;;
69203;SDS011;56317;27.658;85.326;2024-03-06T13:53:19;92.78;;;42.58;;
69203;SDS011;56317;27.658;85.326;2024-03-06T13:55:46;93.97;;;41.78;;
69203;SDS011;56317;27.658;85.326;2024-03-06T13:58:14;96.22;;;43.60;;
69203;SDS011;56317;27.658;85.326;2024-03-06T14:00:41;101.40;;;43.53;;
69203;SDS011;56317;27.658;85.326;2024-03-06T14:03:08;78.47;;;41.83;;
69203;SDS011;56317;27.658;85.326;2024-03-06T14:05:38;97.00;;;45.00;;
69203;SDS011;56317;27.658;85.326;2024-03-06T14:08:05;86.10;;;46.28;;
69203;SDS011;56317;27.658;85.326;2024-03-06T14:13:06;86.85;;;45.15;;
69203;SDS011;56317;27.658;85.326;2024-03-06T14:15:34;94.13;;;45.42;;
69203;SDS011;56317;27.658;85.326;2024-03-06T14:18:01;91.75;;;42.58;;
69203;SDS011;56317;27.658;85.326;2024-03-06T14:20:30;85.45;;;40.65;;
69203;SDS011;56317;27.658;85.326;2024-03-06T14:22:58;92.28;;;44.53;;
69203;SDS011;56317;27.658;85.326;2024-03-06T14:25:25;88.38;;;41.38;;
69203;SDS011;56317;27.658;85.326;2024-03-06T14:27:53;86.53;;;43.47;;
69203;SDS011;56317;27.658;85.326;2024-03-06T14:30:20;76.30;;;39.88;;
69203;SDS011;56317;27.658;85.326;2024-03-06T14:32:47;87.22;;;41.47;;
69203;SDS011;56317;27.658;85.326;2024-03-06T14:35:15;91.03;;;41.83;;
69203;SDS011;56317;27.658;85.326;2024-03-06T14:37:42;82.00;;;39.67;;
69203;SDS011;56317;27.658;85.326;2024-03-06T14:40:09;78.55;;;39.85;;
69203;SDS011;56317;27.658;85.326;2024-03-06T14:42:37;97.32;;;42.58;;
69203;SDS011;56317;27.658;85.326;2024-03-06T14:45:04;80.00;;;40.97;;
69203;SDS011;56317;27.658;85.326;2024-03-06T14:47:32;78.95;;;40.15;;
69203;SDS011;56317;27.658;85.326;2024-03-06T14:49:59;75.35;;;40.88;;
69203;SDS011;56317;27.658;85.326;2024-03-06T14:52:26;89.57;;;40.72;;
69203;SDS011;56317;27.658;85.326;2024-03-06T14:54:53;83.75;;;39.53;;
69203;SDS011;56317;27.658;85.326;2024-03-06T14:57:20;73.65;;;38.65;;
69203;SDS011;56317;27.658;85.326;2024-03-06T14:59:49;76.55;;;41.33;;
69203;SDS011;56317;27.658;85.326;2024-03-06T15:02:16;89.57;;;44.03;;
69203;SDS011;56317;27.658;85.326;2024-03-06T15:04:43;87.07;;;48.33;;
69203;SDS011;56317;27.658;85.326;2024-03-06T15:07:11;103.90;;;52.05;;
69203;SDS011;56317;27.658;85.326;2024-03-06T15:09:38;107.88;;;58.92;;